Latest Weather Observations for Dwellingup

IDW60801

Issued at 1:05 pm WST Saturday 29 November 2014 (issued every 30 minutes, with the page automatically refreshed every 10 minutes)

About weather observations | Map of weather stations | Latest weather observations for WA | Other Formats
Station Details ID: 009538 Name: DWELLINGUP Lat: -32.71 Lon: 116.06 Height: 267.0 m
Data from the previous 72 hours. | See also: Recent months at Dwellingup
Date/Time
WST
Temp
°C
App
Temp
°C
Dew
Point
Rel
Hum
%
Delta-T
°C
Wind Press
QNH
hPa
Press
MSL
hPa
Rain
since 9 am
mm
Dir
 
Spd
km/h
Gust
km/h
Spd
kts
Gust
kts
29/01:00pm 23.6 21.7 10.6 44 7.3 SW 11 19 6 10 1013.7 1013.1 0.0
29/12:30pm 23.0 21.5 10.4 45 7.0 WSW 9 19 5 10 1014.0 1013.4 0.0
29/12:00pm 22.4 21.3 10.5 47 6.6 SW 7 13 4 7 1014.2 1013.6 0.0
29/11:30am 22.0 20.7 11.1 50 6.1 SSE 9 19 5 10 1014.3 1013.7 0.0
29/11:00am 20.1 18.8 11.1 56 5.0 ESE 9 15 5 8 1014.5 1013.9 0.0
29/10:30am 20.0 18.3 11.2 57 4.9 SSW 11 19 6 10 1014.9 1014.3 0.0
29/10:00am 19.4 18.0 12.2 63 4.1 SSE 11 17 6 9 1015.2 1014.7 0.0
29/09:30am 18.3 17.2 11.8 66 3.6 SSE 9 13 5 7 1015.3 1014.8 0.0
29/09:00am 17.9 17.2 11.9 68 3.3 S 7 11 4 6 1015.4 1014.9 0.0
29/08:30am 17.1 16.6 12.2 73 2.7 SSE 6 11 3 6 1015.4 1014.9 0.0
29/08:00am 16.1 14.7 12.3 78 2.1 S 11 15 6 8 1015.5 1015.0 0.0
29/07:30am 16.0 15.2 11.8 76 2.3 S 7 13 4 7 1015.5 1015.0 0.0
29/07:00am 15.9 14.6 12.5 80 1.9 S 11 19 6 10 1015.5 1015.0 0.0
29/06:30am 15.3 14.3 12.2 82 1.7 S 9 15 5 8 1015.2 1014.7 0.0
29/06:00am 15.3 13.9 12.2 82 1.7 S 11 17 6 9 1015.0 1014.5 0.0
29/05:30am 15.4 14.1 12.5 83 1.6 S 11 17 6 9 1014.8 1014.2 0.0
29/05:00am 15.4 14.1 12.5 83 1.6 SSW 11 15 6 8 1014.5 1013.9 0.0
29/04:30am 15.5 14.5 12.3 81 1.8 S 9 15 5 8 1014.1 1013.5 0.0
29/04:00am 15.6 14.7 12.5 82 1.7 S 9 11 5 6 1014.0 1013.4 0.0
29/03:30am 15.7 14.9 13.0 84 1.5 S 9 17 5 9 1013.9 1013.3 0.0
29/03:00am 15.7 14.7 13.4 86 1.3 SSW 11 17 6 9 1013.9 1013.3 0.0
29/02:30am 15.8 14.7 13.1 84 1.5 SW 11 15 6 8 1013.8 1013.2 0.0
29/02:00am 15.9 15.2 13.2 84 1.5 SSW 9 15 5 8 1013.6 1013.0 0.0
29/01:30am 15.9 14.9 13.4 85 1.4 SSW 11 15 6 8 1013.7 1013.1 0.0
29/01:00am 15.9 14.9 13.4 85 1.4 SSW 11 17 6 9 1013.7 1013.1 0.0
29/12:30am 15.7 14.8 13.7 88 1.1 S 11 17 6 9 1013.6 1013.0 0.0
29/12:00am 15.5 14.6 13.7 89 1.0 SSW 11 19 6 10 1013.6 1013.0 0.0
 
Date/Time
WST
Temp
°C
App
Temp
°C
Dew
Point
Rel
Hum
%
Delta-T
°C
Wind Press
QNH
hPa
Press
MSL
hPa
Rain
since 9 am
mm
Dir
 
Spd
km/h
Gust
km/h
Spd
kts
Gust
kts
28/11:30pm 15.3 14.8 13.7 90 0.9 SSW 9 13 5 7 1013.8 1013.2 0.0
28/11:00pm 15.0 13.6 13.4 90 0.9 S 13 20 7 11 1013.9 1013.3 0.0
28/10:30pm 15.1 13.7 13.3 89 1.0 SSW 13 19 7 10 1013.9 1013.3 0.0
28/10:00pm 15.5 13.5 13.9 90 0.9 SW 17 26 9 14 1013.9 1013.3 0.0
28/09:30pm 15.6 14.0 14.0 90 0.9 SW 15 20 8 11 1013.8 1013.2 0.0
28/09:00pm 16.1 14.6 14.3 89 1.0 WSW 15 20 8 11 1013.9 1013.3 0.0
28/08:30pm 16.6 15.6 14.6 88 1.2 W 13 19 7 10 1013.8 1013.2 0.0
28/08:00pm 17.0 15.3 14.6 86 1.4 WSW 17 28 9 15 1013.2 1012.6 0.0
28/07:30pm 17.6 16.0 15.0 85 1.5 WSW 17 26 9 14 1013.0 1012.4 0.0
28/07:00pm 18.3 16.8 15.2 82 1.8 W 17 28 9 15 1012.8 1012.2 0.0
28/06:30pm 18.8 18.1 15.3 80 2.1 WSW 13 24 7 13 1012.5 1011.9 0.0
28/06:00pm 19.3 18.5 15.2 77 2.4 WSW 13 24 7 13 1012.4 1011.8 0.0
28/05:30pm 20.1 19.4 15.5 75 2.8 WSW 13 24 7 13 1012.0 1011.4 0.0
28/05:00pm 20.3 19.0 14.9 71 3.2 W 15 28 8 15 1011.6 1011.0 0.0
28/04:30pm 20.4 19.1 14.7 70 3.4 W 15 24 8 13 1011.2 1010.6 0.0
28/04:00pm 21.6 20.1 14.3 63 4.3 W 15 26 8 14 1010.8 1010.2 0.0
28/03:30pm 21.0 19.6 14.6 67 3.8 W 15 26 8 14 1010.8 1010.2 0.0
28/03:00pm 21.9 20.6 14.8 64 4.2 WSW 15 26 8 14 1010.9 1010.3 0.0
28/02:30pm 21.0 19.2 14.4 66 3.9 W 17 30 9 16 1010.9 1010.3 0.0
28/02:00pm 21.8 20.5 14.9 65 4.1 W 15 28 8 15 1011.1 1010.5 0.0
28/01:30pm 21.7 20.7 15.5 68 3.7 W 15 26 8 14 1011.1 1010.5 0.0
28/01:00pm 21.5 20.8 15.3 68 3.7 W 13 24 7 13 1011.1 1010.5 0.0
28/12:30pm 21.8 21.4 16.1 70 3.5 W 13 26 7 14 1011.3 1010.7 0.0
28/12:00pm 20.7 20.1 15.7 73 3.0 W 13 19 7 10 1011.2 1010.6 0.0
28/11:30am 20.0 19.8 15.6 76 2.6 W 11 19 6 10 1011.2 1010.6 0.0
28/11:00am 20.2 19.9 15.4 74 2.9 WSW 11 20 6 11 1011.2 1010.6 0.0
28/10:30am 20.0 19.2 15.2 74 2.9 WSW 13 19 7 10 1011.1 1010.5 0.0
28/10:00am 20.4 20.6 15.8 75 2.8 SW 9 17 5 9 1010.9 1010.3 0.0
28/09:30am 18.8 18.0 15.1 79 2.2 WSW 13 24 7 13 1011.0 1010.4 0.0
28/09:00am 19.0 17.9 15.3 79 2.2 SW 15 20 8 11 1010.8 1010.2 4.6
28/08:30am 19.2 18.5 15.5 79 2.2 WSW 13 22 7 12 1010.7 1010.1 4.4
28/08:00am 19.4 19.5 16.4 83 1.8 WSW 11 19 6 10 1010.5 1009.9 4.4
28/07:30am 17.9 17.8 16.9 94 0.6 W 13 20 7 11 1010.5 1009.9 4.4
28/07:00am 16.0 17.2 15.0 94 0.6 W 2 9 1 5 1010.4 1009.8 4.4
28/06:30am 14.6 14.6 13.6 94 0.6 S 6 9 3 5 1010.4 1009.8 4.4
28/06:00am 14.0 14.6 13.1 94 0.5 SE 2 7 1 4 1010.6 1010.0 4.4
28/05:30am 13.7 13.2 12.8 94 0.5 S 7 9 4 5 1010.3 1009.7 4.4
28/05:00am 13.9 13.5 13.0 94 0.5 ESE 7 9 4 5 1010.0 1009.4 4.4
28/04:30am 13.9 13.5 13.0 94 0.5 SE 7 9 4 5 1009.9 1009.3 4.4
28/04:00am 13.9 13.1 13.0 94 0.5 ENE 9 13 5 7 1009.9 1009.3 4.4
28/03:30am 14.1 14.7 13.1 94 0.6 SW 2 7 1 4 1009.7 1009.1 4.4
28/03:00am 13.6 13.2 12.5 93 0.6 W 6 7 3 4 1009.9 1009.3 4.4
28/02:30am 13.8 14.6 12.7 93 0.6 CALM 0 6 0 3 1010.1 1009.5 4.4
28/02:00am 14.0 13.2 12.9 93 0.6 ESE 9 9 5 5 1009.9 1009.3 4.4
28/01:30am 14.3 13.6 13.2 93 0.6 E 9 13 5 7 1010.0 1009.4 4.4
28/01:00am 14.4 13.4 13.3 93 0.6 E 11 13 6 7 1010.2 1009.6 4.4
28/12:30am 14.7 13.8 13.6 93 0.6 ESE 11 15 6 8 1010.2 1009.6 4.4
28/12:00am 14.9 14.0 13.8 93 0.6 ESE 11 13 6 7 1010.3 1009.7 4.4
 
Date/Time
WST
Temp
°C
App
Temp
°C
Dew
Point
Rel
Hum
%
Delta-T
°C
Wind Press
QNH
hPa
Press
MSL
hPa
Rain
since 9 am
mm
Dir
 
Spd
km/h
Gust
km/h
Spd
kts
Gust
kts
27/11:30pm 15.3 14.2 14.2 93 0.6 SE 13 15 7 8 1010.4 1009.8 4.4
27/11:00pm 15.4 14.7 14.3 93 0.6 SE 11 15 6 8 1010.4 1009.8 4.4
27/10:30pm 15.7 14.6 14.4 92 0.7 SE 13 15 7 8 1010.6 1010.0 4.4
27/10:00pm 16.2 15.7 14.9 92 0.8 ESE 11 13 6 7 1010.5 1009.9 4.4
27/09:30pm 16.8 16.1 15.5 92 0.8 SSE 13 17 7 9 1010.6 1010.0 4.4
27/09:00pm 16.9 16.3 15.6 92 0.8 SSE 13 17 7 9 1010.5 1009.9 4.4
27/08:30pm 17.3 17.1 15.8 91 0.9 SE 11 13 6 7 1010.5 1009.9 4.4
27/08:00pm 17.6 17.1 15.9 90 1.0 SSE 13 17 7 9 1010.6 1010.0 4.4
27/07:30pm 18.0 17.6 16.2 89 1.1 SE 13 15 7 8 1010.5 1009.9 4.4
27/07:00pm 18.8 18.5 16.4 86 1.5 S 13 15 7 8 1010.6 1010.0 4.4
27/06:30pm 19.7 20.2 16.5 82 1.9 SSW 9 13 5 7 1010.3 1009.7 4.4
27/06:00pm 20.9 21.9 16.9 78 2.5 SSE 7 11 4 6 1010.1 1009.5 4.4
27/05:30pm 20.6 21.2 16.8 79 2.3 E 9 15 5 8 1009.8 1009.2 4.4
27/05:00pm 20.0 21.1 17.2 84 1.7 ESE 7 15 4 8 1009.8 1009.2 4.4
27/04:30pm 18.2 18.0 16.7 91 0.9 ESE 13 19 7 10 1009.8 1009.2 4.4
27/04:00pm 17.8 18.1 16.0 89 1.1 S 9 11 5 6 1011.6 1011.0 3.8
27/03:30pm 18.0 18.2 15.8 87 1.3 S 9 13 5 7 1012.1 1011.5 3.8
27/03:00pm 19.0 18.9 15.9 82 1.9 WSW 11 17 6 9 1013.1 1012.5 1.4
27/02:30pm 20.7 21.2 15.5 72 3.1 SSW 7 13 4 7 1012.1 1011.5 0.8
27/02:00pm 21.0 20.6 16.2 74 2.9 SSW 13 19 7 10 1012.0 1011.4 0.8
27/01:30pm 20.9 21.5 16.9 78 2.5 S 9 13 5 7 1012.4 1011.8 0.8
27/01:00pm 20.6 22.8 16.4 77 2.6 CALM 0 0 0 0 1012.6 1012.0 0.8
27/12:30pm 20.8 22.0 15.8 73 3.0 W 4 11 2 6 1012.8 1012.2 0.6
27/12:00pm 19.4 19.4 16.2 82 1.9 SW 11 15 6 8 1012.6 1012.0 0.6
27/11:30am 19.9 20.3 16.2 79 2.2 WNW 9 13 5 7 1013.4 1012.8 0.6
27/11:00am 20.3 21.3 16.9 81 2.1 WNW 7 15 4 8 1013.5 1012.9 0.6
27/10:30am 19.9 21.5 17.9 88 1.2 SSW 6 11 3 6 1013.3 1012.7 0.6
27/10:00am 19.1 19.9 17.4 90 1.0 WNW 9 15 5 8 1013.4 1012.8 0.4
27/09:30am 18.3 20.7 17.0 92 0.8 CALM 0 0 0 0 1013.2 1012.6 0.0
27/09:00am 17.6 18.6 16.3 92 0.8 SW 6 9 3 5 1013.0 1012.4 17.6
27/08:30am 16.9 17.0 15.6 92 0.8 N 9 13 5 7 1013.9 1013.3 16.8
27/08:00am 16.9 17.5 15.4 91 0.9 E 6 11 3 6 1013.8 1013.2 15.4
27/07:30am 17.0 17.5 15.5 91 0.9 E 7 17 4 9 1013.8 1013.2 15.0
27/07:00am 17.0 17.1 15.5 91 0.9 ESE 9 13 5 7 1013.3 1012.7 15.0
27/06:30am 16.7 16.3 15.2 91 0.9 ESE 11 15 6 8 1012.8 1012.2 15.0
27/06:00am 16.4 16.0 15.1 92 0.8 ESE 11 15 6 8 1012.6 1012.0 14.6
27/05:30am 16.3 16.5 14.8 91 0.9 SE 7 11 4 6 1012.4 1011.8 14.6
27/05:00am 16.1 16.3 14.6 91 0.9 SE 7 9 4 5 1012.4 1011.8 14.6
27/04:30am 16.2 14.8 14.6 90 0.9 ESE 15 17 8 9 1011.4 1010.8 14.6
27/04:00am 16.5 14.8 14.7 89 1.0 SE 17 20 9 11 1011.1 1010.5 14.6
27/03:30am 16.8 15.1 14.6 87 1.3 E 17 24 9 13 1010.9 1010.3 14.6
27/03:00am 18.3 17.0 14.8 80 2.1 ENE 15 24 8 13 1010.3 1009.7 14.6
27/02:30am 16.8 15.3 15.3 91 0.9 ENE 17 30 9 16 1010.2 1009.6 14.6
27/02:00am 16.4 14.5 15.1 92 0.8 E 19 28 10 15 1010.2 1009.6 14.6
27/01:30am 16.5 14.9 15.0 91 0.9 E 17 26 9 14 1010.5 1009.9 14.6
27/01:00am 16.6 14.7 15.1 91 0.9 E 19 28 10 15 1010.8 1010.2 14.6
27/12:30am 16.9 15.4 15.4 91 0.9 E 17 28 9 15 1011.1 1010.5 14.6
27/12:00am 16.8 14.7 15.3 91 0.9 ESE 20 28 11 15 1011.2 1010.6 14.6
 
Date/Time
WST
Temp
°C
App
Temp
°C
Dew
Point
Rel
Hum
%
Delta-T
°C
Wind Press
QNH
hPa
Press
MSL
hPa
Rain
since 9 am
mm
Dir
 
Spd
km/h
Gust
km/h
Spd
kts
Gust
kts
26/11:30pm 16.9 15.0 15.2 90 1.0 ESE 19 30 10 16 1011.6 1011.0 14.6
26/11:00pm 17.1 15.3 15.6 91 0.9 ESE 19 32 10 17 1011.6 1011.0 14.6
26/10:30pm 17.0 15.0 15.5 91 0.9 SE 20 32 11 17 1011.8 1011.2 14.6
26/10:00pm 17.2 15.3 15.7 91 0.9 ESE 20 32 11 17 1012.3 1011.7 14.6
26/09:40pm 17.3 13.9 15.8 91 0.9 SE 28 48 15 26 1012.2 1011.6 14.4
26/09:30pm 17.3 15.4 15.8 91 0.9 SE 20 32 11 17 1013.2 1012.6 14.4
26/09:00pm 17.4 15.6 16.1 92 0.8 SE 20 33 11 18 1013.7 1013.1 14.4
26/08:30pm 17.4 17.0 16.1 92 0.8 SE 13 19 7 10 1014.4 1013.8 13.8
26/08:00pm 17.7 18.1 16.2 91 0.9 SE 9 13 5 7 1015.0 1014.5 12.2
26/07:30pm 17.7 17.6 15.9 89 1.1 E 11 17 6 9 1014.6 1014.0 11.0
26/07:00pm 18.0 16.0 15.6 86 1.4 NNE 20 33 11 18 1014.0 1013.4 10.2
26/06:30pm 18.6 15.8 15.3 81 2.0 NE 24 48 13 26 1013.4 1012.8 9.4
26/06:00pm 17.9 15.2 15.7 87 1.3 E 24 35 13 19 1011.9 1011.3 8.8
26/05:30pm 18.3 17.0 15.9 86 1.4 ENE 17 24 9 13 1011.3 1010.7 7.8
26/05:00pm 18.3 16.4 15.7 85 1.6 E 20 32 11 17 1011.0 1010.4 7.2
26/04:30pm 18.4 14.2 15.8 85 1.6 E 32 56 17 30 1010.0 1009.4 7.2
26/04:15pm 18.1 13.8 15.9 87 1.3 ESE 33 52 18 28 1010.3 1009.7 7.0
26/04:00pm 18.4 16.2 16.0 86 1.4 E 22 37 12 20 1011.9 1011.3 6.4
26/03:30pm 18.4 16.6 16.0 86 1.4 E 20 26 11 14 1011.1 1010.5 5.2
26/03:00pm 18.5 15.9 15.0 80 2.1 S 22 28 12 15 1011.6 1011.0 5.0
26/02:30pm 19.5 17.6 14.1 71 3.2 W 17 26 9 14 1013.3 1012.7 3.6
26/02:00pm 24.7 22.0 11.6 44 7.5 SSE 17 26 9 14 1011.8 1011.2 0.0
26/01:30pm 25.9 22.6 9.7 36 9.0 ESE 17 28 9 15 1011.6 1011.0 0.0

Other Formats:

Comma delimited format used in spreadsheet applications
http://www.bom.gov.au/fwo/IDW60801/IDW60801.94620.axf

JavaScript Object Notation format (JSON) in row-major order
http://www.bom.gov.au/fwo/IDW60801/IDW60801.94620.json